METAR Data
IDs: Format: Raw Decoded Include TAF

Data at: 1209 UTC 26 Feb 2021

UUMO 261200Z 27011MPS 9999 BKN016 OVC036 05/03 Q1001 R25/290550 NOSIG RMK QFE736/0981